LiveATC.Net - Listen to live air traffic control over the Internet! Contact for advertising information

ICAO: KRST  IATA: RST   Airport: Rochester International Airport
City: Rochester   State/Province: Minnesota
Country: United States   Continent: North America
KRST METAR Weather: KRST 061254Z 20005KT 9SM OVC060 11/10 A3017 RMK AO2 SLP218 T01110100
KRST Flight Activity (FlightAware)
KRST Airport Info   (AirNav) (iFlightPlanner)
KRST VFR Sectional Chart   (iFlightPlanner) 
KRST IFR Low Chart   (iFlightPlanner) 
KRST Gnd/Twr/App
Feed Status: UP   Listeners: 2
Listen right in your browser - requires Flash (in browser, requires Flash)
Click here to listen with your own player (launches your MP3 player)
KRST Gnd/Twr/App Audio Archives
Rochester Approach119.200
Rochester Approach119.800
Rochester Ground121.900
Rochester Tower118.300


Unauthorized use prohibited. See Terms of Service

Find LiveATC Audio Streams

Airport/ARTCC Code

(e.g., 124.400, 128.75)
Site-wide search

Browse LiveATC Feeds
LiveATC Coverage Map
Top 50 LiveATC Feeds
Bad Weather Areas

Offer a LiveATC Feed
Press Inquiries

LiveATC on iPhone
LiveATC on Android

LiveATC Mobile
(Mobile browser)

ATC Audio Archives
Interesting Recordings

LiveATC Forums

Home Page
Make a Donation
LiveATC Bookstore

Terms of Use
Privacy Policy

ATC/Radar Sites
U.S. ARTCC Freqs
Canadian Air Freqs


FAA Airport Status
Nat'l Airspace Status
Arrival Demand Charts

Server Software By:

Please make a donation to help us keep growing!